createdAt,value
2023-03-18T00:01:33.744Z,94.27
2023-03-18T00:05:15.883Z,95.95
2023-03-18T00:08:51.292Z,96.70
2023-03-18T00:15:23.692Z,95.55
2023-03-18T00:17:56.304Z,95.86
2023-03-18T00:20:39.199Z,95.17
2023-03-18T00:23:13.476Z,95.14
2023-03-18T00:25:48.963Z,95.45
2023-03-18T00:28:22.080Z,95.08
2023-03-18T00:30:57.850Z,94.99
2023-03-18T00:33:34.523Z,95.26
2023-03-18T00:36:10.683Z,95.71
2023-03-18T00:38:44.300Z,96.36
2023-03-18T00:41:16.538Z,97.59
2023-03-18T00:43:53.074Z,99.31
2023-03-18T00:46:29.903Z,100.00
2023-03-18T00:49:05.749Z,100.00
2023-03-18T00:51:42.392Z,100.00
2023-03-18T00:54:18.734Z,100.00
2023-03-18T00:56:59.983Z,100.00
2023-03-18T00:59:33.668Z,100.00
2023-03-18T01:03:08.486Z,100.00
2023-03-18T01:06:42.338Z,100.00
2023-03-18T01:10:18.252Z,100.00
2023-03-18T01:13:52.293Z,100.00
2023-03-18T01:16:24.389Z,100.00
2023-03-18T01:18:57.675Z,100.00
2023-03-18T01:21:41.934Z,100.00
2023-03-18T01:24:16.634Z,100.00
2023-03-18T01:26:51.339Z,100.00
2023-03-18T01:29:24.241Z,100.00
2023-03-18T01:34:35.926Z,100.00
2023-03-18T01:36:54.304Z,100.00
2023-03-18T01:43:56.685Z,100.00
2023-03-18T01:46:40.449Z,100.00
2023-03-18T01:49:14.473Z,100.00
2023-03-18T01:51:53.011Z,100.00
2023-03-18T01:54:27.664Z,100.00
2023-03-18T01:57:01.351Z,100.00
2023-03-18T01:59:39.218Z,100.00
2023-03-18T02:02:13.787Z,100.00
2023-03-18T02:04:52.047Z,100.00
2023-03-18T02:07:28.469Z,100.00
2023-03-18T02:10:05.660Z,100.00
2023-03-18T02:12:41.708Z,100.00
2023-03-18T02:15:25.684Z,100.00
2023-03-18T02:18:07.171Z,100.00
2023-03-18T02:21:00.274Z,100.00
2023-03-18T02:23:55.252Z,100.00
2023-03-18T02:26:34.930Z,100.00
2023-03-18T02:29:10.481Z,100.00
2023-03-18T02:32:45.187Z,100.00
2023-03-18T02:43:29.402Z,100.00
2023-03-18T02:46:38.010Z,100.00
2023-03-18T02:49:18.101Z,100.00
2023-03-18T02:51:53.584Z,100.00
2023-03-18T02:54:31.829Z,100.00
2023-03-18T02:57:04.698Z,100.00
2023-03-18T02:59:40.435Z,100.00
2023-03-18T03:03:17.211Z,100.00
2023-03-18T03:06:52.826Z,100.00
2023-03-18T03:10:28.946Z,100.00
2023-03-18T03:14:04.789Z,100.00
2023-03-18T03:16:38.834Z,100.00
2023-03-18T03:19:11.995Z,100.00
2023-03-18T03:21:45.336Z,100.00
2023-03-18T03:24:18.596Z,100.00
2023-03-18T03:26:55.962Z,100.00
2023-03-18T03:29:29.846Z,100.00
2023-03-18T03:33:03.779Z,100.00
2023-03-18T03:36:43.570Z,100.00
2023-03-18T03:43:44.046Z,100.00
2023-03-18T03:46:17.247Z,100.00
2023-03-18T03:48:51.089Z,100.00
2023-03-18T03:51:24.446Z,100.00
2023-03-18T03:53:55.929Z,100.00
2023-03-18T03:56:28.986Z,100.00
2023-03-18T03:59:02.930Z,100.00
2023-03-18T04:01:50.196Z,100.00
2023-03-18T04:04:22.907Z,100.00
2023-03-18T04:06:57.009Z,100.00
2023-03-18T04:09:30.919Z,100.00
2023-03-18T04:12:04.441Z,100.00
2023-03-18T04:14:37.856Z,100.00
2023-03-18T04:18:12.402Z,100.00
2023-03-18T04:29:43.959Z,100.00
2023-03-18T04:32:17.959Z,100.00
2023-03-18T04:34:52.425Z,100.00
2023-03-18T04:37:27.143Z,100.00
2023-03-18T04:40:02.274Z,100.00
2023-03-18T04:42:35.701Z,100.00
2023-03-18T04:45:10.891Z,100.00
2023-03-18T04:48:49.374Z,100.00
2023-03-18T04:52:24.930Z,100.00
2023-03-18T04:59:25.551Z,100.00
2023-03-18T05:01:59.991Z,100.00
2023-03-18T05:04:34.553Z,100.00
2023-03-18T05:07:07.633Z,100.00
2023-03-18T05:09:44.192Z,100.00
2023-03-18T05:12:18.701Z,100.00
2023-03-18T05:14:54.022Z,100.00
2023-03-18T05:17:27.820Z,100.00
2023-03-18T05:20:05.252Z,100.00
2023-03-18T05:22:38.992Z,100.00
2023-03-18T05:25:19.842Z,100.00
2023-03-18T05:27:54.803Z,100.00
2023-03-18T05:30:41.741Z,100.00
2023-03-18T05:34:15.446Z,100.00
2023-03-18T05:41:37.679Z,100.00
2023-03-18T05:45:08.007Z,100.00
2023-03-18T05:47:45.556Z,100.00
2023-03-18T05:50:29.336Z,100.00
2023-03-18T05:53:02.550Z,100.00
2023-03-18T05:55:40.561Z,100.00
2023-03-18T05:58:15.278Z,99.90
2023-03-18T06:00:49.940Z,99.88
2023-03-18T06:03:25.455Z,99.69
2023-03-18T06:05:58.263Z,99.91
2023-03-18T06:08:33.201Z,99.26
2023-03-18T06:11:06.233Z,99.34
2023-03-18T06:13:47.545Z,97.92
2023-03-18T06:17:21.372Z,95.42
2023-03-18T06:21:07.362Z,95.05
2023-03-18T06:27:50.013Z,94.46
2023-03-18T06:31:11.156Z,92.00
2023-03-18T06:33:46.914Z,91.94
2023-03-18T06:36:24.504Z,92.59
2023-03-18T06:39:02.127Z,90.57
2023-03-18T06:41:35.942Z,87.27
2023-03-18T06:44:31.340Z,86.70
2023-03-18T06:48:07.812Z,86.62
2023-03-18T06:51:44.170Z,83.59
2023-03-18T06:55:19.379Z,81.23
2023-03-18T06:59:22.135Z,81.33
2023-03-18T07:02:00.555Z,83.16
2023-03-18T07:04:36.023Z,83.35
2023-03-18T07:07:10.762Z,81.15
2023-03-18T07:09:41.544Z,80.37
2023-03-18T07:12:16.824Z,78.40
2023-03-18T07:14:50.661Z,80.79
2023-03-18T07:18:24.759Z,75.96
2023-03-18T07:21:58.383Z,74.50
2023-03-18T07:25:35.903Z,76.85
2023-03-18T07:29:02.716Z,72.44
2023-03-18T07:31:37.572Z,69.92
2023-03-18T07:34:13.193Z,71.76
2023-03-18T07:36:47.577Z,70.67
2023-03-18T07:39:20.642Z,71.34
2023-03-18T07:41:54.034Z,72.57
2023-03-18T07:44:30.131Z,71.72
2023-03-18T07:48:03.808Z,72.09
2023-03-18T07:51:27.949Z,73.94
2023-03-18T07:59:18.510Z,68.55
2023-03-18T08:01:52.919Z,68.35
2023-03-18T08:04:24.365Z,68.53
2023-03-18T08:06:58.231Z,69.87
2023-03-18T08:09:31.341Z,67.62
2023-03-18T08:12:06.904Z,67.31
2023-03-18T08:14:40.942Z,64.15
2023-03-18T08:17:14.361Z,64.94
2023-03-18T08:19:47.723Z,65.57
2023-03-18T08:22:21.513Z,63.92
2023-03-18T08:24:54.951Z,63.44
2023-03-18T08:27:31.569Z,62.42
2023-03-18T08:30:04.909Z,64.24
2023-03-18T08:32:40.405Z,64.75
2023-03-18T08:35:14.894Z,64.21
2023-03-18T08:37:49.393Z,65.03
2023-03-18T08:40:22.792Z,65.69
2023-03-18T08:42:55.815Z,61.78
2023-03-18T08:45:29.271Z,62.43
2023-03-18T08:49:02.845Z,61.12
2023-03-18T08:52:40.911Z,61.64
2023-03-18T09:06:04.172Z,59.75
2023-03-18T09:09:43.523Z,57.77
2023-03-18T09:13:18.370Z,56.36
2023-03-18T09:16:24.092Z,55.24
2023-03-18T09:18:57.825Z,55.30
2023-03-18T09:21:31.869Z,56.14
2023-03-18T09:24:07.378Z,58.03
2023-03-18T09:26:41.663Z,55.74
2023-03-18T09:29:16.366Z,55.90
2023-03-18T09:31:49.826Z,55.88
2023-03-18T09:34:23.356Z,55.17
2023-03-18T09:36:54.020Z,56.32
2023-03-18T09:39:27.549Z,55.86
2023-03-18T09:42:20.649Z,56.51
2023-03-18T09:44:59.911Z,54.63
2023-03-18T09:48:01.365Z,55.50
2023-03-18T09:50:56.726Z,53.56
2023-03-18T09:53:41.849Z,54.98
2023-03-18T09:56:19.772Z,52.91
2023-03-18T09:59:09.028Z,51.05
2023-03-18T10:01:45.312Z,52.25
2023-03-18T10:04:23.379Z,52.39
2023-03-18T10:07:06.371Z,52.37
2023-03-18T10:09:46.999Z,49.28
2023-03-18T10:12:31.459Z,49.72
2023-03-18T10:15:16.877Z,49.03
2023-03-18T10:17:55.820Z,47.11
2023-03-18T10:20:36.201Z,47.47
2023-03-18T10:23:21.982Z,43.29
2023-03-18T10:25:57.643Z,44.23
2023-03-18T10:28:45.085Z,44.18
2023-03-18T10:31:33.990Z,43.10
2023-03-18T10:34:13.921Z,45.06
2023-03-18T10:36:57.667Z,42.29
2023-03-18T10:39:36.050Z,43.75
2023-03-18T10:42:23.233Z,42.31
2023-03-18T10:45:11.288Z,43.39
2023-03-18T10:48:50.254Z,43.34
2023-03-18T10:52:21.936Z,43.78
2023-03-18T10:56:05.297Z,46.50
2023-03-18T10:59:38.930Z,43.77
2023-03-18T11:03:23.836Z,45.15
2023-03-18T11:07:00.574Z,46.00
2023-03-18T11:11:05.426Z,43.67
2023-03-18T11:14:43.454Z,44.34
2023-03-18T11:17:28.590Z,42.84
2023-03-18T11:20:22.287Z,41.14
2023-03-18T11:22:58.288Z,41.33
2023-03-18T11:25:31.734Z,40.36
2023-03-18T11:28:09.205Z,42.61
2023-03-18T11:30:50.284Z,41.47
2023-03-18T11:33:34.876Z,42.08
2023-03-18T11:36:16.425Z,39.72
2023-03-18T11:39:00.831Z,38.75
2023-03-18T11:41:33.832Z,38.87
2023-03-18T11:44:18.908Z,38.62
2023-03-18T11:47:52.543Z,35.42
2023-03-18T11:51:51.360Z,35.17
2023-03-18T12:09:01.073Z,36.15
2023-03-18T12:12:44.783Z,36.50
2023-03-18T12:16:24.378Z,35.83
2023-03-18T12:19:27.025Z,36.31
2023-03-18T12:22:14.384Z,37.51
2023-03-18T12:25:05.855Z,37.53
2023-03-18T12:27:50.680Z,39.69
2023-03-18T12:30:46.044Z,37.09
2023-03-18T12:33:40.915Z,36.30
2023-03-18T12:36:29.486Z,38.67
2023-03-18T12:39:16.607Z,39.99
2023-03-18T12:42:02.439Z,39.24
2023-03-18T12:45:01.998Z,38.03
2023-03-18T12:48:44.546Z,38.58
2023-03-18T12:52:30.726Z,37.74
2023-03-18T12:56:13.747Z,38.97
2023-03-18T12:59:53.253Z,38.92
2023-03-18T13:02:45.296Z,38.71
2023-03-18T13:05:42.081Z,38.47
2023-03-18T13:08:43.028Z,38.49
2023-03-18T13:11:31.337Z,37.14
2023-03-18T13:14:14.901Z,37.28
2023-03-18T13:16:50.734Z,36.39
2023-03-18T13:20:32.680Z,37.32
2023-03-18T13:24:36.737Z,37.15
2023-03-18T13:31:29.572Z,35.95
2023-03-18T13:34:40.828Z,36.99
2023-03-18T13:37:49.993Z,34.88
2023-03-18T13:40:52.903Z,36.64
2023-03-18T13:43:28.097Z,36.22
2023-03-18T13:46:03.315Z,35.24
2023-03-18T13:49:42.226Z,34.52
2023-03-18T13:53:00.277Z,35.20
2023-03-18T13:56:53.408Z,34.40
2023-03-18T14:00:34.922Z,35.03
2023-03-18T14:04:04.348Z,34.12
2023-03-18T14:07:26.586Z,35.19
2023-03-18T14:11:32.417Z,35.19
2023-03-18T14:15:19.288Z,36.05
2023-03-18T14:17:58.811Z,35.07
2023-03-18T14:20:42.581Z,35.74
2023-03-18T14:23:40.947Z,34.63
2023-03-18T14:26:22.705Z,36.00
2023-03-18T14:29:16.353Z,33.52
2023-03-18T14:31:58.472Z,34.68
2023-03-18T14:35:35.959Z,33.36
2023-03-18T14:39:11.562Z,34.12
2023-03-18T14:42:35.112Z,34.33
2023-03-18T14:46:18.024Z,33.72
2023-03-18T14:49:43.971Z,32.78
2023-03-18T15:00:43.411Z,31.72
2023-03-18T15:04:24.170Z,32.29
2023-03-18T15:07:58.294Z,32.69
2023-03-18T15:15:45.250Z,32.47
2023-03-18T15:19:23.680Z,33.31
2023-03-18T15:23:29.202Z,34.29
2023-03-18T15:27:07.384Z,35.11
2023-03-18T15:30:36.313Z,36.41
2023-03-18T15:34:13.141Z,35.44
2023-03-18T15:37:42.832Z,35.06
2023-03-18T15:41:08.653Z,35.98
2023-03-18T15:44:31.267Z,35.62
2023-03-18T15:47:52.577Z,36.98
2023-03-18T15:50:34.878Z,38.18
2023-03-18T15:53:19.735Z,38.94
2023-03-18T15:55:55.852Z,39.34
2023-03-18T15:58:36.583Z,40.16
2023-03-18T16:01:16.087Z,39.86
2023-03-18T16:04:51.013Z,39.66
2023-03-18T16:08:14.749Z,40.34
2023-03-18T16:11:55.713Z,40.47
2023-03-18T16:15:25.088Z,41.24
2023-03-18T16:17:59.623Z,41.97
2023-03-18T16:20:33.973Z,41.70
2023-03-18T16:23:15.103Z,41.69
2023-03-18T16:25:51.733Z,41.92
2023-03-18T16:28:28.534Z,42.69
2023-03-18T16:31:02.264Z,42.98
2023-03-18T16:34:23.022Z,43.00
2023-03-18T16:37:49.308Z,43.98
2023-03-18T16:41:24.121Z,43.38
2023-03-18T16:47:47.300Z,45.36
2023-03-18T16:50:23.950Z,45.62
2023-03-18T16:52:57.342Z,45.94
2023-03-18T16:55:31.760Z,47.10
2023-03-18T16:58:05.633Z,47.82
2023-03-18T17:00:39.917Z,48.20
2023-03-18T17:04:10.344Z,48.91
2023-03-18T17:07:40.432Z,48.89
2023-03-18T17:11:19.982Z,49.50
2023-03-18T17:14:34.212Z,50.20
2023-03-18T17:17:59.024Z,50.63
2023-03-18T17:20:34.173Z,50.08
2023-03-18T17:23:07.402Z,50.48
2023-03-18T17:25:40.704Z,49.65
2023-03-18T17:28:21.122Z,50.02
2023-03-18T17:30:56.805Z,49.83
2023-03-18T17:34:21.634Z,50.09
2023-03-18T17:37:41.371Z,49.85
2023-03-18T17:41:21.488Z,48.98
2023-03-18T17:44:43.772Z,49.28
2023-03-18T17:47:41.891Z,49.97
2023-03-18T17:50:19.965Z,49.29
2023-03-18T17:53:02.683Z,48.38
2023-03-18T17:55:43.484Z,49.42
2023-03-18T17:58:22.637Z,49.41
2023-03-18T18:01:02.201Z,49.90
2023-03-18T18:03:38.729Z,49.79
2023-03-18T18:06:13.926Z,50.47
2023-03-18T18:08:47.850Z,50.75
2023-03-18T18:11:24.314Z,51.12
2023-03-18T18:14:01.322Z,51.05
2023-03-18T18:16:36.564Z,51.75
2023-03-18T18:20:18.187Z,51.63
2023-03-18T18:23:51.766Z,52.24
2023-03-18T18:27:25.368Z,52.42
2023-03-18T18:31:00.544Z,53.19
2023-03-18T18:33:37.299Z,53.23
2023-03-18T18:36:13.707Z,53.33
2023-03-18T18:38:49.126Z,52.66
2023-03-18T18:41:23.946Z,53.04
2023-03-18T18:43:57.723Z,51.97
2023-03-18T18:46:32.260Z,52.61
2023-03-18T18:49:06.592Z,52.29
2023-03-18T18:51:41.872Z,53.26
2023-03-18T18:54:16.923Z,53.74
2023-03-18T18:56:51.113Z,55.37
2023-03-18T18:59:29.263Z,55.29
2023-03-18T19:02:04.071Z,55.66
2023-03-18T19:05:24.914Z,54.94
2023-03-18T19:08:52.434Z,56.82
2023-03-18T19:12:21.324Z,60.65
2023-03-18T19:15:54.552Z,64.37
2023-03-18T19:18:39.224Z,63.56
2023-03-18T19:21:13.627Z,60.83
2023-03-18T19:23:47.514Z,65.98
2023-03-18T19:26:21.824Z,67.86
2023-03-18T19:28:59.802Z,65.73
2023-03-18T19:31:36.350Z,67.92
2023-03-18T19:34:55.445Z,67.32
2023-03-18T19:38:30.780Z,65.40
2023-03-18T19:42:07.613Z,65.63
2023-03-18T19:48:41.720Z,65.51
2023-03-18T19:51:16.311Z,65.55
2023-03-18T19:53:50.367Z,65.43
2023-03-18T19:56:31.650Z,66.20
2023-03-18T19:59:04.542Z,65.99
2023-03-18T20:01:37.614Z,66.09
2023-03-18T20:05:27.831Z,66.91
2023-03-18T20:09:02.531Z,66.84
2023-03-18T20:12:39.750Z,66.83
2023-03-18T20:16:17.035Z,67.02
2023-03-18T20:19:33.394Z,67.72
2023-03-18T20:22:48.545Z,70.45
2023-03-18T20:26:06.925Z,70.64
2023-03-18T20:29:38.894Z,72.68
2023-03-18T20:33:10.385Z,73.76
2023-03-18T20:35:49.295Z,74.03
2023-03-18T20:38:30.673Z,75.88
2023-03-18T20:41:04.243Z,78.06
2023-03-18T20:43:39.935Z,76.73
2023-03-18T20:46:16.394Z,77.76
2023-03-18T20:49:45.843Z,78.50
2023-03-18T20:53:18.862Z,77.22
2023-03-18T20:56:35.803Z,78.12
2023-03-18T20:59:49.025Z,77.42
2023-03-18T21:03:28.110Z,75.98
2023-03-18T21:06:04.459Z,75.54
2023-03-18T21:08:37.746Z,76.48
2023-03-18T21:11:22.038Z,76.03
2023-03-18T21:13:55.273Z,75.52
2023-03-18T21:16:29.668Z,76.32
2023-03-18T21:20:19.322Z,76.44
2023-03-18T21:24:04.147Z,75.74
2023-03-18T21:27:39.596Z,77.09
2023-03-18T21:31:25.672Z,77.03
2023-03-18T21:34:00.238Z,78.80
2023-03-18T21:36:33.302Z,78.31
2023-03-18T21:39:06.087Z,78.93
2023-03-18T21:41:39.890Z,77.00
2023-03-18T21:44:14.751Z,76.90
2023-03-18T21:46:47.552Z,77.06
2023-03-18T21:50:22.273Z,76.38
2023-03-18T21:53:49.300Z,77.11
2023-03-18T21:57:25.869Z,76.17
2023-03-18T22:00:29.640Z,75.75
2023-03-18T22:03:19.455Z,76.44
2023-03-18T22:05:51.805Z,75.94
2023-03-18T22:08:25.823Z,77.27
2023-03-18T22:10:58.962Z,76.92
2023-03-18T22:13:33.836Z,76.26
2023-03-18T22:16:15.311Z,76.74
2023-03-18T22:18:49.026Z,76.50
2023-03-18T22:21:21.407Z,76.17
2023-03-18T22:23:58.704Z,76.69
2023-03-18T22:26:31.906Z,76.15
2023-03-18T22:29:04.963Z,77.28
2023-03-18T22:31:38.964Z,77.55
2023-03-18T22:34:24.544Z,76.32
2023-03-18T22:36:57.537Z,77.23
2023-03-18T22:39:30.549Z,78.48
2023-03-18T22:42:03.636Z,77.88
2023-03-18T22:44:37.844Z,77.30
2023-03-18T22:47:15.892Z,77.06
2023-03-18T22:50:33.392Z,78.71
2023-03-18T22:53:55.805Z,78.20
2023-03-18T22:57:33.463Z,77.95
2023-03-18T23:01:12.192Z,77.05
2023-03-18T23:03:47.374Z,76.58
2023-03-18T23:06:24.216Z,77.99
2023-03-18T23:08:57.328Z,77.65
2023-03-18T23:11:30.897Z,77.74
2023-03-18T23:14:04.129Z,78.04
2023-03-18T23:16:38.838Z,76.91
2023-03-18T23:20:14.237Z,76.83
2023-03-18T23:23:49.440Z,77.65
2023-03-18T23:33:32.529Z,77.17
2023-03-18T23:36:05.418Z,76.66
2023-03-18T23:38:38.731Z,75.60
2023-03-18T23:41:12.009Z,76.12
2023-03-18T23:43:44.743Z,76.44
2023-03-18T23:46:29.403Z,75.71
2023-03-18T23:49:02.133Z,75.70
2023-03-18T23:51:35.358Z,76.04
2023-03-18T23:54:08.540Z,76.38
2023-03-18T23:56:41.471Z,76.76
2023-03-18T23:59:16.471Z,77.07
